createdAt,value
2018-11-26T00:00:36.286Z,33.52
2018-11-26T00:03:13.485Z,33.18
2018-11-26T00:05:42.380Z,33.13
2018-11-26T00:08:12.365Z,33.15
2018-11-26T00:11:07.067Z,33.70
2018-11-26T00:13:35.836Z,33.53
2018-11-26T00:16:04.546Z,33.62
2018-11-26T00:18:33.366Z,33.73
2018-11-26T00:21:02.077Z,33.56
2018-11-26T00:23:30.762Z,33.61
2018-11-26T00:25:59.692Z,33.48
2018-11-26T00:28:28.467Z,32.96
2018-11-26T00:30:57.333Z,33.37
2018-11-26T00:33:26.189Z,32.92
2018-11-26T00:35:55.078Z,33.25
2018-11-26T00:38:23.976Z,32.81
2018-11-26T00:40:52.790Z,32.79
2018-11-26T00:43:21.560Z,33.29
2018-11-26T00:45:50.313Z,33.31
2018-11-26T00:48:19.068Z,32.81
2018-11-26T00:50:47.902Z,32.63
2018-11-26T00:53:16.708Z,32.77
2018-11-26T00:55:45.714Z,33.21
2018-11-26T00:58:14.455Z,33.21
2018-11-26T01:00:43.186Z,33.23
2018-11-26T01:03:12.141Z,33.11
2018-11-26T01:05:41.676Z,33.06
2018-11-26T01:08:10.493Z,32.53
2018-11-26T01:10:39.196Z,32.65
2018-11-26T01:13:09.029Z,32.35
2018-11-26T01:15:37.780Z,32.44
2018-11-26T01:18:06.875Z,32.61
2018-11-26T01:20:35.774Z,32.26
2018-11-26T01:23:04.518Z,32.87
2018-11-26T01:25:33.227Z,32.69
2018-11-26T01:28:01.925Z,32.56
2018-11-26T01:30:30.737Z,32.77
2018-11-26T01:32:59.447Z,32.71
2018-11-26T01:35:28.141Z,32.43
2018-11-26T01:37:57.075Z,32.12
2018-11-26T01:40:31.359Z,32.17
2018-11-26T01:43:00.017Z,32.02
2018-11-26T01:45:28.843Z,31.98
2018-11-26T01:47:57.656Z,31.91
2018-11-26T01:50:26.598Z,32.42
2018-11-26T01:52:55.281Z,32.49
2018-11-26T01:55:24.018Z,32.34
2018-11-26T01:57:52.772Z,31.81
2018-11-26T02:00:26.678Z,32.34
2018-11-26T02:02:55.561Z,32.35
2018-11-26T02:05:24.307Z,32.02
2018-11-26T02:07:53.572Z,31.72
2018-11-26T02:10:22.283Z,32.20
2018-11-26T02:12:51.064Z,31.59
2018-11-26T02:15:33.666Z,31.64
2018-11-26T02:18:02.641Z,32.21
2018-11-26T02:20:31.274Z,32.02
2018-11-26T02:23:00.053Z,31.45
2018-11-26T02:25:28.747Z,31.87
2018-11-26T02:27:57.399Z,31.83
2018-11-26T02:30:26.210Z,32.43
2018-11-26T02:32:54.888Z,31.64
2018-11-26T02:35:23.558Z,32.02
2018-11-26T02:37:53.242Z,32.00
2018-11-26T02:40:26.897Z,31.35
2018-11-26T02:42:55.560Z,31.69
2018-11-26T02:45:24.227Z,31.32
2018-11-26T02:47:52.907Z,31.47
2018-11-26T02:50:21.566Z,31.21
2018-11-26T02:52:50.298Z,31.76
2018-11-26T02:55:18.984Z,31.78
2018-11-26T02:57:47.662Z,31.74
2018-11-26T03:00:16.437Z,30.96
2018-11-26T03:02:45.083Z,31.58
2018-11-26T03:05:18.470Z,31.61
2018-11-26T03:07:47.122Z,31.28
2018-11-26T03:10:15.781Z,31.48
2018-11-26T03:12:44.519Z,30.94
2018-11-26T03:15:13.284Z,30.95
2018-11-26T03:17:41.947Z,31.39
2018-11-26T03:20:11.115Z,30.81
2018-11-26T03:22:39.839Z,30.89
2018-11-26T03:25:10.915Z,31.24
2018-11-26T03:27:39.711Z,30.69
2018-11-26T03:30:13.156Z,30.78
2018-11-26T03:32:41.880Z,31.07
2018-11-26T03:35:10.915Z,30.51
2018-11-26T03:37:39.687Z,31.20
2018-11-26T03:40:11.425Z,31.05
2018-11-26T03:42:40.209Z,30.52
2018-11-26T03:45:11.707Z,30.52
2018-11-26T03:47:40.434Z,30.60
2018-11-26T03:50:09.787Z,30.83
2018-11-26T03:52:38.522Z,31.00
2018-11-26T03:55:08.715Z,30.53
2018-11-26T03:57:37.461Z,30.74
2018-11-26T04:00:09.493Z,30.49
2018-11-26T04:02:38.296Z,30.40
2018-11-26T04:05:07.975Z,30.28
2018-11-26T04:07:36.647Z,30.81
2018-11-26T04:10:06.942Z,30.76
2018-11-26T04:12:35.596Z,30.78
2018-11-26T04:15:04.465Z,30.58
2018-11-26T04:17:33.184Z,30.23
2018-11-26T04:20:01.885Z,30.74
2018-11-26T04:22:30.571Z,30.94
2018-11-26T04:24:59.250Z,30.30
2018-11-26T04:27:27.937Z,30.03
2018-11-26T04:29:56.591Z,30.30
2018-11-26T04:32:25.326Z,30.55
2018-11-26T04:34:53.987Z,30.48
2018-11-26T04:37:22.614Z,30.39
2018-11-26T04:39:51.295Z,30.46
2018-11-26T04:42:20.048Z,29.96
2018-11-26T04:44:48.718Z,30.48
2018-11-26T04:47:17.398Z,29.95
2018-11-26T04:49:46.079Z,30.51
2018-11-26T04:52:14.819Z,30.29
2018-11-26T04:54:43.509Z,29.75
2018-11-26T04:57:12.182Z,30.50
2018-11-26T04:59:41.051Z,30.19
2018-11-26T05:02:09.748Z,30.46
2018-11-26T05:04:38.428Z,30.39
2018-11-26T05:07:07.262Z,30.34
2018-11-26T05:09:35.918Z,30.37
2018-11-26T05:12:04.596Z,29.82
2018-11-26T05:14:33.314Z,30.30
2018-11-26T05:17:02.354Z,30.34
2018-11-26T05:19:31.004Z,29.76
2018-11-26T05:21:59.696Z,29.65
2018-11-26T05:24:28.362Z,29.75
2018-11-26T05:26:57.090Z,29.68
2018-11-26T05:29:25.891Z,29.60
2018-11-26T05:31:54.579Z,29.64
2018-11-26T05:34:23.591Z,29.58
2018-11-26T05:36:52.324Z,30.03
2018-11-26T05:39:21.072Z,30.05
2018-11-26T05:41:49.707Z,29.52
2018-11-26T05:44:18.343Z,30.12
2018-11-26T05:46:47.015Z,29.39
2018-11-26T05:49:15.700Z,30.00
2018-11-26T05:51:44.389Z,29.86
2018-11-26T05:54:13.053Z,29.87
2018-11-26T05:56:41.661Z,29.47
2018-11-26T05:59:10.340Z,29.85
2018-11-26T06:01:39.030Z,29.79
2018-11-26T06:04:07.789Z,29.74
2018-11-26T06:06:36.599Z,29.19
2018-11-26T06:09:08.959Z,29.88
2018-11-26T06:11:38.759Z,29.12
2018-11-26T06:14:07.924Z,29.35
2018-11-26T06:16:37.652Z,29.11
2018-11-26T06:19:06.679Z,30.03
2018-11-26T06:21:35.366Z,28.98
2018-11-26T06:24:04.439Z,29.51
2018-11-26T06:26:33.076Z,28.98
2018-11-26T06:29:01.713Z,29.07
2018-11-26T06:31:30.480Z,29.03
2018-11-26T06:33:59.225Z,28.79
2018-11-26T06:36:28.009Z,28.83
2018-11-26T06:38:56.620Z,28.93
2018-11-26T06:41:25.269Z,28.92
2018-11-26T06:43:54.023Z,29.58
2018-11-26T06:46:22.796Z,29.03
2018-11-26T06:48:51.473Z,28.96
2018-11-26T06:51:20.236Z,28.95
2018-11-26T06:53:48.929Z,29.31
2018-11-26T06:56:18.169Z,28.87
2018-11-26T06:58:46.847Z,29.50
2018-11-26T07:01:15.507Z,29.15
2018-11-26T07:03:44.244Z,29.76
2018-11-26T07:06:13.050Z,29.51
2018-11-26T07:08:41.839Z,29.48
2018-11-26T07:11:10.600Z,29.96
2018-11-26T07:13:39.333Z,30.76
2018-11-26T07:16:08.185Z,31.19
2018-11-26T07:18:36.898Z,31.24
2018-11-26T07:21:07.124Z,30.77
2018-11-26T07:23:35.841Z,30.89
2018-11-26T07:26:04.598Z,30.61
2018-11-26T07:28:33.267Z,30.95
2018-11-26T07:31:01.979Z,31.09
2018-11-26T07:33:30.701Z,30.24
2018-11-26T07:35:59.962Z,30.81
2018-11-26T07:38:28.698Z,30.75
2018-11-26T07:40:57.387Z,30.31
2018-11-26T07:43:26.086Z,30.75
2018-11-26T07:45:54.931Z,30.08
2018-11-26T07:48:23.879Z,30.65
2018-11-26T07:50:52.564Z,30.11
2018-11-26T07:53:21.549Z,29.93
2018-11-26T07:55:50.299Z,30.27
2018-11-26T07:58:19.461Z,29.80
2018-11-26T08:00:48.402Z,30.29
2018-11-26T08:03:17.342Z,29.77
2018-11-26T08:05:45.967Z,29.70
2018-11-26T08:08:15.055Z,29.84
2018-11-26T08:10:43.847Z,29.61
2018-11-26T08:13:12.571Z,30.12
2018-11-26T08:15:41.308Z,29.53
2018-11-26T08:18:10.113Z,29.55
2018-11-26T08:20:38.902Z,29.94
2018-11-26T08:23:07.633Z,29.46
2018-11-26T08:25:36.271Z,29.38
2018-11-26T08:28:05.157Z,29.50
2018-11-26T08:30:33.805Z,29.68
2018-11-26T08:33:03.094Z,29.61
2018-11-26T08:35:32.121Z,29.86
2018-11-26T08:38:06.051Z,29.31
2018-11-26T08:40:39.843Z,29.27
2018-11-26T08:43:13.598Z,29.79
2018-11-26T08:45:51.724Z,29.67
2018-11-26T08:48:26.175Z,29.62
2018-11-26T08:50:55.697Z,29.51
2018-11-26T08:53:24.641Z,29.07
2018-11-26T08:55:53.337Z,29.01
2018-11-26T08:58:22.034Z,29.25
2018-11-26T09:00:55.947Z,29.02
2018-11-26T09:03:28.748Z,29.08
2018-11-26T09:06:02.573Z,29.47
2018-11-26T09:08:32.420Z,28.95
2018-11-26T09:11:01.737Z,29.18
2018-11-26T09:13:30.535Z,28.91
2018-11-26T09:15:59.237Z,29.21
2018-11-26T09:18:27.968Z,28.68
2018-11-26T09:20:56.691Z,29.30
2018-11-26T09:23:25.351Z,29.11
2018-11-26T09:25:54.171Z,29.15
2018-11-26T09:28:22.956Z,28.94
2018-11-26T09:30:51.819Z,29.07
2018-11-26T09:33:20.459Z,29.11
2018-11-26T09:35:49.120Z,28.68
2018-11-26T09:38:18.011Z,28.62
2018-11-26T09:40:46.702Z,28.46
2018-11-26T09:43:15.411Z,28.66
2018-11-26T09:45:44.047Z,28.46
2018-11-26T09:48:12.706Z,28.98
2018-11-26T09:50:41.471Z,28.50
2018-11-26T09:53:10.116Z,28.82
2018-11-26T09:55:38.794Z,28.82
2018-11-26T09:58:07.532Z,28.86
2018-11-26T10:00:36.203Z,28.20
2018-11-26T10:03:05.076Z,28.40
2018-11-26T10:05:33.728Z,28.19
2018-11-26T10:08:02.616Z,28.33
2018-11-26T10:10:31.262Z,28.17
2018-11-26T10:12:59.979Z,28.52
2018-11-26T10:15:28.932Z,28.63
2018-11-26T10:17:58.378Z,28.69
2018-11-26T10:20:27.081Z,28.42
2018-11-26T10:22:55.759Z,28.23
2018-11-26T10:25:24.518Z,27.98
2018-11-26T10:28:09.523Z,28.48
2018-11-26T10:30:40.712Z,28.21
2018-11-26T10:33:14.677Z,28.58
2018-11-26T10:35:38.037Z,27.98
2018-11-26T10:38:06.924Z,27.88
2018-11-26T10:40:35.626Z,28.39
2018-11-26T10:43:04.422Z,28.10
2018-11-26T10:45:33.126Z,28.36
2018-11-26T10:48:01.897Z,27.90
2018-11-26T10:50:30.643Z,28.18
2018-11-26T10:52:59.839Z,28.13
2018-11-26T10:55:36.138Z,28.09
2018-11-26T10:58:05.722Z,27.58
2018-11-26T11:00:38.585Z,27.59
2018-11-26T11:03:07.465Z,27.42
2018-11-26T11:05:37.122Z,27.82
2018-11-26T11:08:06.742Z,28.11
2018-11-26T11:10:35.495Z,27.48
2018-11-26T11:13:04.830Z,27.84
2018-11-26T11:15:33.600Z,27.44
2018-11-26T11:18:02.267Z,27.59
2018-11-26T11:20:31.103Z,27.95
2018-11-26T11:22:59.747Z,27.53
2018-11-26T11:25:28.505Z,27.97
2018-11-26T11:27:57.356Z,27.31
2018-11-26T11:30:29.625Z,27.36
2018-11-26T11:32:58.294Z,27.53
2018-11-26T11:35:26.983Z,27.89
2018-11-26T11:37:55.926Z,27.36
2018-11-26T11:40:29.311Z,27.13
2018-11-26T11:42:58.707Z,27.23
2018-11-26T11:45:28.024Z,27.79
2018-11-26T11:47:56.769Z,27.22
2018-11-26T11:50:25.551Z,27.07
2018-11-26T11:52:54.209Z,27.16
2018-11-26T11:55:24.207Z,27.39
2018-11-26T11:57:53.188Z,27.72
2018-11-26T12:00:39.503Z,27.03
2018-11-26T12:03:13.431Z,27.53
2018-11-26T12:05:42.224Z,27.52
2018-11-26T12:08:11.305Z,27.33
2018-11-26T12:10:40.099Z,27.01
2018-11-26T12:13:10.288Z,27.00
2018-11-26T12:15:41.416Z,26.95
2018-11-26T12:18:11.141Z,27.33
2018-11-26T12:20:39.935Z,27.49
2018-11-26T12:23:08.697Z,26.86
2018-11-26T12:25:37.422Z,26.95
2018-11-26T12:28:06.135Z,27.40
2018-11-26T12:30:36.622Z,27.01
2018-11-26T12:33:05.588Z,26.83
2018-11-26T12:35:34.718Z,26.77
2018-11-26T12:38:03.704Z,27.42
2018-11-26T12:40:32.372Z,27.35
2018-11-26T12:43:02.585Z,26.85
2018-11-26T12:45:32.666Z,27.02
2018-11-26T12:48:01.762Z,27.20
2018-11-26T12:50:30.511Z,27.02
2018-11-26T12:52:59.161Z,27.21
2018-11-26T12:55:27.843Z,27.19
2018-11-26T12:57:57.304Z,26.82
2018-11-26T13:00:28.042Z,27.16
2018-11-26T13:03:00.249Z,26.77
2018-11-26T13:05:28.967Z,27.02
2018-11-26T13:07:57.595Z,27.09
2018-11-26T13:10:26.344Z,27.26
2018-11-26T13:12:55.036Z,27.13
2018-11-26T13:15:25.501Z,27.25
2018-11-26T13:17:54.211Z,26.71
2018-11-26T13:20:25.696Z,26.80
2018-11-26T13:22:54.592Z,27.16
2018-11-26T13:25:24.561Z,26.72
2018-11-26T13:27:54.363Z,26.94
2018-11-26T13:30:25.376Z,27.28
2018-11-26T13:32:56.210Z,27.27
2018-11-26T13:35:25.006Z,26.69
2018-11-26T13:37:53.704Z,26.71
2018-11-26T13:40:22.717Z,27.02
2018-11-26T13:42:51.871Z,27.33
2018-11-26T13:45:23.873Z,27.28
2018-11-26T13:47:52.573Z,27.24
2018-11-26T13:50:26.647Z,27.16
2018-11-26T13:52:55.522Z,26.80
2018-11-26T13:55:24.336Z,27.24
2018-11-26T13:57:52.985Z,27.19
2018-11-26T14:00:21.858Z,26.72
2018-11-26T14:02:50.596Z,27.28
2018-11-26T14:05:19.835Z,26.65
2018-11-26T14:07:48.857Z,26.69
2018-11-26T14:10:21.365Z,26.50
2018-11-26T14:12:53.068Z,26.58
2018-11-26T14:15:21.722Z,26.53
2018-11-26T14:17:50.413Z,27.03
2018-11-26T14:20:19.217Z,27.13
2018-11-26T14:22:47.857Z,26.55
2018-11-26T14:25:17.720Z,26.40
2018-11-26T14:27:47.041Z,27.07
2018-11-26T14:30:26.065Z,26.49
2018-11-26T14:32:55.006Z,26.98
2018-11-26T14:35:23.799Z,26.45
2018-11-26T14:37:56.802Z,27.04
2018-11-26T14:40:33.574Z,27.04
2018-11-26T14:43:02.612Z,26.99
2018-11-26T14:45:31.261Z,26.47
2018-11-26T14:47:59.929Z,26.93
2018-11-26T14:50:28.681Z,26.43
2018-11-26T14:52:57.374Z,26.48
2018-11-26T14:55:28.371Z,26.67
2018-11-26T14:57:57.419Z,26.80
2018-11-26T15:00:26.165Z,26.94
2018-11-26T15:02:54.861Z,27.06
2018-11-26T15:05:23.641Z,26.39
2018-11-26T15:07:52.388Z,26.96
2018-11-26T15:10:22.140Z,26.34
2018-11-26T15:12:51.016Z,26.56
2018-11-26T15:15:21.271Z,26.91
2018-11-26T15:17:50.017Z,26.27
2018-11-26T15:20:20.929Z,26.89
2018-11-26T15:22:51.313Z,26.80
2018-11-26T15:25:21.861Z,26.78
2018-11-26T15:27:51.118Z,26.76
2018-11-26T15:30:21.098Z,26.26
2018-11-26T15:32:49.873Z,26.34
2018-11-26T15:35:21.615Z,26.57
2018-11-26T15:37:50.355Z,26.52
2018-11-26T15:40:20.104Z,26.24
2018-11-26T15:42:48.884Z,26.22
2018-11-26T15:45:23.651Z,26.24
2018-11-26T15:47:53.255Z,26.94
2018-11-26T15:50:22.039Z,26.17
2018-11-26T15:52:50.706Z,26.62
2018-11-26T15:55:20.589Z,26.77
2018-11-26T15:57:49.518Z,26.12
2018-11-26T16:00:21.945Z,26.40
2018-11-26T16:02:51.035Z,26.16
2018-11-26T16:05:25.004Z,26.13
2018-11-26T16:07:54.472Z,26.10
2018-11-26T16:10:23.144Z,26.51
2018-11-26T16:12:53.574Z,26.06
2018-11-26T16:15:25.738Z,25.99
2018-11-26T16:17:55.660Z,26.08
2018-11-26T16:20:26.297Z,26.63
2018-11-26T16:22:55.377Z,26.09
2018-11-26T16:25:24.818Z,26.10
2018-11-26T16:27:53.580Z,26.61
2018-11-26T16:30:22.348Z,26.22
2018-11-26T16:32:55.704Z,26.09
2018-11-26T16:35:29.065Z,26.60
2018-11-26T16:37:57.952Z,26.52
2018-11-26T16:40:26.656Z,26.60
2018-11-26T16:42:55.492Z,26.04
2018-11-26T16:45:25.328Z,26.11
2018-11-26T16:47:55.130Z,26.37
2018-11-26T16:50:26.058Z,25.97
2018-11-26T16:52:54.827Z,26.12
2018-11-26T16:55:23.575Z,26.49
2018-11-26T16:57:52.402Z,26.21
2018-11-26T17:00:23.200Z,26.04
2018-11-26T17:02:54.828Z,25.95
2018-11-26T17:05:28.772Z,26.17
2018-11-26T17:07:57.640Z,25.96
2018-11-26T17:10:26.484Z,26.58
2018-11-26T17:12:55.265Z,25.87
2018-11-26T17:15:23.937Z,26.39
2018-11-26T17:17:52.679Z,25.97
2018-11-26T17:20:21.534Z,26.09
2018-11-26T17:22:50.258Z,26.33
2018-11-26T17:25:18.973Z,25.44
2018-11-26T17:27:47.871Z,25.97
2018-11-26T17:30:18.463Z,26.36
2018-11-26T17:32:48.365Z,26.27
2018-11-26T17:35:17.569Z,26.01
2018-11-26T17:37:46.354Z,26.15
2018-11-26T17:40:22.778Z,26.18
2018-11-26T17:42:51.893Z,26.26
2018-11-26T17:45:21.235Z,26.48
2018-11-26T17:47:53.128Z,26.63
2018-11-26T17:50:39.817Z,26.78
2018-11-26T17:53:11.736Z,26.84
2018-11-26T17:55:47.898Z,27.54
2018-11-26T17:58:17.044Z,27.63
2018-11-26T18:00:49.825Z,28.65
2018-11-26T18:03:18.953Z,29.41
2018-11-26T18:05:47.745Z,29.93
2018-11-26T18:08:17.631Z,29.99
2018-11-26T18:10:46.379Z,30.09
2018-11-26T18:13:15.238Z,30.55
2018-11-26T18:15:44.037Z,30.13
2018-11-26T18:18:16.267Z,30.58
2018-11-26T18:20:45.147Z,30.13
2018-11-26T18:23:14.132Z,30.47
2018-11-26T18:25:43.247Z,30.49
2018-11-26T18:28:15.275Z,29.92
2018-11-26T18:30:51.962Z,30.49
2018-11-26T18:33:20.870Z,29.79
2018-11-26T18:35:49.820Z,30.22
2018-11-26T18:38:18.667Z,30.14
2018-11-26T18:40:49.095Z,29.51
2018-11-26T18:43:17.881Z,29.40
2018-11-26T18:45:46.628Z,29.75
2018-11-26T18:48:16.031Z,29.42
2018-11-26T18:50:44.748Z,29.75
2018-11-26T18:53:13.539Z,29.04
2018-11-26T18:55:43.032Z,29.50
2018-11-26T18:58:11.778Z,29.10
2018-11-26T19:00:52.740Z,29.00
2018-11-26T19:03:22.499Z,29.24
2018-11-26T19:05:52.718Z,28.99
2018-11-26T19:08:21.538Z,29.02
2018-11-26T19:10:52.241Z,28.89
2018-11-26T19:13:23.824Z,28.39
2018-11-26T19:15:54.713Z,28.43
2018-11-26T19:18:24.624Z,28.24
2018-11-26T19:20:53.654Z,28.60
2018-11-26T19:23:22.866Z,27.96
2018-11-26T19:25:52.793Z,28.53
2018-11-26T19:28:22.428Z,28.29
2018-11-26T19:30:51.226Z,28.00
2018-11-26T19:33:19.912Z,27.98
2018-11-26T19:35:48.697Z,28.62
2018-11-26T19:38:17.465Z,28.35
2018-11-26T19:40:46.245Z,27.82
2018-11-26T19:43:14.949Z,28.20
2018-11-26T19:45:43.873Z,27.64
2018-11-26T19:48:12.632Z,28.04
2018-11-26T19:50:41.457Z,27.58
2018-11-26T19:53:12.234Z,28.05
2018-11-26T19:55:42.253Z,27.41
2018-11-26T19:58:11.159Z,27.94
2018-11-26T20:00:40.291Z,27.68
2018-11-26T20:03:19.222Z,27.34
2018-11-26T20:06:00.457Z,27.55
2018-11-26T20:08:29.212Z,27.90
2018-11-26T20:10:57.992Z,27.33
2018-11-26T20:13:26.870Z,27.72
2018-11-26T20:15:56.668Z,27.71
2018-11-26T20:18:28.509Z,27.86
2018-11-26T20:20:54.164Z,27.50
2018-11-26T20:23:23.622Z,27.11
2018-11-26T20:25:52.989Z,27.04
2018-11-26T20:28:22.157Z,27.23
2018-11-26T20:30:50.959Z,27.09
2018-11-26T20:33:19.739Z,27.56
2018-11-26T20:35:48.541Z,27.00
2018-11-26T20:38:18.437Z,26.94
2018-11-26T20:40:47.214Z,26.84
2018-11-26T20:43:16.304Z,27.30
2018-11-26T20:45:46.909Z,26.91
2018-11-26T20:48:15.670Z,26.78
2018-11-26T20:50:47.353Z,26.83
2018-11-26T20:53:16.241Z,26.74
2018-11-26T20:55:45.049Z,26.79
2018-11-26T20:58:13.829Z,27.01
2018-11-26T21:00:42.987Z,26.68
2018-11-26T21:03:12.234Z,26.81
2018-11-26T21:05:41.945Z,26.76
2018-11-26T21:08:10.936Z,26.93
2018-11-26T21:10:39.880Z,26.88
2018-11-26T21:13:09.434Z,26.57
2018-11-26T21:15:38.402Z,26.97
2018-11-26T21:18:13.007Z,26.55
2018-11-26T21:20:43.457Z,26.56
2018-11-26T21:23:14.231Z,26.47
2018-11-26T21:25:42.951Z,26.87
2018-11-26T21:28:11.899Z,26.93
2018-11-26T21:30:40.814Z,27.02
2018-11-26T21:33:10.608Z,26.45
2018-11-26T21:35:39.445Z,27.31
2018-11-26T21:38:09.742Z,26.96
2018-11-26T21:40:39.546Z,27.39
2018-11-26T21:43:09.183Z,27.09
2018-11-26T21:45:40.095Z,27.44
2018-11-26T21:48:09.154Z,27.08
2018-11-26T21:50:38.101Z,27.10
2018-11-26T21:53:07.631Z,27.14
2018-11-26T21:55:36.585Z,27.17
2018-11-26T21:58:05.504Z,27.59
2018-11-26T22:00:34.807Z,27.68
2018-11-26T22:03:15.626Z,27.67
2018-11-26T22:05:45.198Z,27.65
2018-11-26T22:08:14.203Z,27.41
2018-11-26T22:10:44.253Z,27.81
2018-11-26T22:13:15.771Z,27.85
2018-11-26T22:15:44.590Z,27.40
2018-11-26T22:18:13.373Z,27.73
2018-11-26T22:20:42.170Z,27.92
2018-11-26T22:23:10.996Z,27.62
2018-11-26T22:25:39.899Z,27.21
2018-11-26T22:28:10.195Z,27.13
2018-11-26T22:30:39.499Z,27.83
2018-11-26T22:33:09.061Z,26.79
2018-11-26T22:35:37.331Z,27.47
2018-11-26T22:38:06.263Z,27.34
2018-11-26T22:40:34.934Z,26.77
2018-11-26T22:43:03.649Z,27.30
2018-11-26T22:45:33.531Z,27.39
2018-11-26T22:48:11.016Z,27.19
2018-11-26T22:50:42.027Z,26.67
2018-11-26T22:53:10.912Z,26.53
2018-11-26T22:55:39.680Z,26.99
2018-11-26T22:58:09.876Z,26.85
2018-11-26T23:00:41.681Z,27.00
2018-11-26T23:03:11.445Z,26.38
2018-11-26T23:05:40.114Z,26.94
2018-11-26T23:08:08.987Z,26.34
2018-11-26T23:10:37.812Z,26.80
2018-11-26T23:13:07.396Z,26.88
2018-11-26T23:15:36.176Z,26.24
2018-11-26T23:18:06.119Z,26.74
2018-11-26T23:20:34.961Z,26.68
2018-11-26T23:23:03.714Z,26.63
2018-11-26T23:25:32.534Z,26.70
2018-11-26T23:28:01.240Z,25.95
2018-11-26T23:30:30.674Z,26.07
2018-11-26T23:33:00.397Z,26.65
2018-11-26T23:35:29.213Z,26.59
2018-11-26T23:37:57.925Z,26.18
2018-11-26T23:40:26.755Z,26.04
2018-11-26T23:42:55.495Z,26.45
2018-11-26T23:45:25.257Z,26.40
2018-11-26T23:47:53.962Z,26.40
2018-11-26T23:50:22.764Z,26.46
2018-11-26T23:52:51.454Z,26.46
2018-11-26T23:55:21.296Z,25.95
2018-11-26T23:57:50.086Z,26.53
